Time;durP1;ratioP1;P1;durP2;ratioP2;P2;SDS_P1;SDS_P2;PMS_P1;PMS_P2;Temp;Humidity;BMP_temperature;BMP_pressure;BME280_temperature;BME280_humidity;BME280_pressure;Samples;Min_cycle;Max_cycle;Signal;HPM_P1;HPM_P2
2021/12/07 00:00:51;;;;;;;44.72;12.90;;;;;;;;;;5092519;28;20215;-68
2021/12/07 00:03:19;;;;;;;36.13;11.32;;;;;;;;;;5085668;28;20204;-67
2021/12/07 00:05:47;;;;;;;52.85;13.80;;;;;;;;;;5092812;28;20212;-67
2021/12/07 00:08:15;;;;;;;50.45;14.18;;;;;;;;;;5092523;28;20203;-67
2021/12/07 00:10:42;;;;;;;47.00;13.50;;;;;;;;;;5092205;28;20236;-66
2021/12/07 00:13:12;;;;;;;46.33;13.15;;;;;;;;;;5092472;28;20230;-67
2021/12/07 00:15:40;;;;;;;46.33;13.00;;;;;;;;;;5091983;28;20656;-67
2021/12/07 00:18:07;;;;;;;45.22;13.07;;;;;;;;;;5092264;28;20199;-67
2021/12/07 00:20:35;;;;;;;72.05;14.63;;;;;;;;;;5091281;28;20665;-67
2021/12/07 00:23:06;;;;;;;43.67;13.70;;;;;;;;;;5091998;28;20208;-67
2021/12/07 00:25:33;;;;;;;46.25;13.50;;;;;;;;;;5092020;28;20204;-66
2021/12/07 00:28:01;;;;;;;47.55;14.52;;;;;;;;;;5092099;28;20239;-67
2021/12/07 00:30:32;;;;;;;45.80;13.73;;;;;;;;;;5092081;28;20227;-67
2021/12/07 00:33:11;;;;;;;55.78;15.52;;;;;;;;;;5092115;28;20207;-67
2021/12/07 00:35:39;;;;;;;57.10;13.25;;;;;;;;;;5091343;28;20207;-66
2021/12/07 00:38:08;;;;;;;39.53;12.18;;;;;;;;;;5092097;28;20207;-67
2021/12/07 00:40:36;;;;;;;56.67;16.10;;;;;;;;;;5092126;28;20231;-66
2021/12/07 00:43:04;;;;;;;55.63;16.55;;;;;;;;;;5091985;28;20630;-67
2021/12/07 00:45:34;;;;;;;55.22;14.82;;;;;;;;;;5091697;28;20306;-66
2021/12/07 00:48:01;;;;;;;52.25;13.73;;;;;;;;;;5091638;28;20219;-66
2021/12/07 00:50:29;;;;;;;36.13;11.80;;;;;;;;;;5091801;28;20262;-66
2021/12/07 00:52:57;;;;;;;41.83;9.52;;;;;;;;;;5091694;28;20200;-66
2021/12/07 00:55:26;;;;;;;42.55;12.52;;;;;;;;;;5110914;28;20203;-67
2021/12/07 00:57:56;;;;;;;43.65;13.20;;;;;;;;;;5110901;28;20554;-66
2021/12/07 01:00:25;;;;;;;38.58;11.55;;;;;;;;;;5110902;28;20267;-67
2021/12/07 01:02:54;;;;;;;43.88;10.60;;;;;;;;;;5111303;28;20583;-67
2021/12/07 01:05:27;;;;;;;47.08;12.98;;;;;;;;;;5110610;28;20266;-67
2021/12/07 01:08:13;;;;;;;42.90;11.90;;;;;;;;;;5110937;28;20214;-67
2021/12/07 01:24:43;;;;;;;39.20;11.10;;;;;;;;;;5044922;28;20209;-66
2021/12/07 01:27:12;;;;;;;41.17;10.30;;;;;;;;;;5085169;28;20207;-67
2021/12/07 01:29:42;;;;;;;32.75;8.65;;;;;;;;;;5083760;28;20234;-68
2021/12/07 01:32:37;;;;;;;25.58;7.95;;;;;;;;;;5090917;28;20673;-68
2021/12/07 01:38:02;;;;;;;35.78;9.98;;;;;;;;;;5083457;28;20240;-66
2021/12/07 01:40:48;;;;;;;50.70;11.10;;;;;;;;;;5090991;28;20214;-66
2021/12/07 01:52:30;;;;;;;39.60;11.82;;;;;;;;;;5084435;28;20242;-67
2021/12/07 01:59:31;;;;;;;37.42;10.15;;;;;;;;;;5110420;28;20296;-66
2021/12/07 02:00:44;;;;;;;31.77;10.05;;;;;;;;;;5110128;28;20246;-67
2021/12/07 02:03:11;;;;;;;50.00;12.45;;;;;;;;;;5096048;28;20688;-66
2021/12/07 02:05:38;;;;;;;46.45;14.48;;;;;;;;;;5090645;28;20215;-66
2021/12/07 02:08:08;;;;;;;48.70;12.85;;;;;;;;;;5110269;28;20199;-67
2021/12/07 02:10:35;;;;;;;36.17;9.52;;;;;;;;;;5109966;28;20238;-67
2021/12/07 02:13:06;;;;;;;37.03;10.05;;;;;;;;;;5110310;28;20203;-70
2021/12/07 02:15:35;;;;;;;42.60;12.88;;;;;;;;;;5113388;28;20210;-66
2021/12/07 02:18:02;;;;;;;36.60;10.23;;;;;;;;;;5112595;28;20302;-66
2021/12/07 02:20:31;;;;;;;45.10;10.25;;;;;;;;;;5112587;28;20211;-67
2021/12/07 02:23:00;;;;;;;41.15;12.23;;;;;;;;;;5112044;28;20648;-66
2021/12/07 02:25:28;;;;;;;51.00;14.93;;;;;;;;;;5111964;28;20207;-70
2021/12/07 02:27:56;;;;;;;43.83;13.40;;;;;;;;;;5111969;28;20207;-69
2021/12/07 02:30:24;;;;;;;43.08;11.23;;;;;;;;;;5086098;28;20700;-67
2021/12/07 02:32:53;;;;;;;38.10;10.77;;;;;;;;;;5092752;28;20204;-70
2021/12/07 02:35:24;;;;;;;44.10;13.07;;;;;;;;;;5092377;28;20204;-68
2021/12/07 02:37:52;;;;;;;34.60;10.63;;;;;;;;;;5092442;28;20712;-67
2021/12/07 02:40:21;;;;;;;36.58;10.68;;;;;;;;;;5092774;28;20747;-68
2021/12/07 02:42:49;;;;;;;36.80;11.77;;;;;;;;;;5092016;28;20631;-67
2021/12/07 02:45:16;;;;;;;44.80;12.45;;;;;;;;;;5095196;28;20200;-67
2021/12/07 02:47:44;;;;;;;43.17;14.43;;;;;;;;;;5096180;28;20219;-66
2021/12/07 02:50:12;;;;;;;44.38;10.50;;;;;;;;;;5096061;28;20243;-66
2021/12/07 02:52:39;;;;;;;39.78;10.57;;;;;;;;;;5094648;28;20299;-68
2021/12/07 02:55:08;;;;;;;38.33;10.70;;;;;;;;;;5095962;28;20702;-67
2021/12/07 02:57:36;;;;;;;57.13;13.80;;;;;;;;;;5095146;28;20214;-67
2021/12/07 03:00:10;;;;;;;38.28;11.85;;;;;;;;;;5095923;28;20208;-66
2021/12/07 03:02:43;;;;;;;27.52;9.40;;;;;;;;;;5095270;28;20204;-67
2021/12/07 03:05:22;;;;;;;38.55;9.90;;;;;;;;;;5095193;28;20231;-66
2021/12/07 03:08:09;;;;;;;40.35;10.70;;;;;;;;;;5094154;28;20235;-67
2021/12/07 03:27:05;;;;;;;35.35;11.20;;;;;;;;;;5093472;28;20254;-69
2021/12/07 03:29:33;;;;;;;46.80;12.38;;;;;;;;;;5093149;28;20208;-67
2021/12/07 03:32:01;;;;;;;36.85;9.75;;;;;;;;;;5092907;28;20243;-66
2021/12/07 03:34:28;;;;;;;46.40;11.55;;;;;;;;;;5093093;28;20592;-66
2021/12/07 03:36:56;;;;;;;49.63;11.98;;;;;;;;;;5093082;28;20263;-66
2021/12/07 03:39:23;;;;;;;43.58;11.85;;;;;;;;;;5093010;28;20211;-67
2021/12/07 03:41:51;;;;;;;41.38;12.23;;;;;;;;;;5094000;28;20212;-68
2021/12/07 03:44:18;;;;;;;39.00;11.85;;;;;;;;;;5095093;28;20207;-67
2021/12/07 03:46:47;;;;;;;40.83;12.45;;;;;;;;;;5094477;28;20211;-67
2021/12/07 03:49:15;;;;;;;38.08;9.73;;;;;;;;;;5094598;28;20204;-68
2021/12/07 03:51:42;;;;;;;46.10;10.63;;;;;;;;;;5094722;28;20228;-67
2021/12/07 03:54:09;;;;;;;43.92;12.05;;;;;;;;;;5087998;28;20739;-67
2021/12/07 03:56:37;;;;;;;38.60;10.55;;;;;;;;;;5094652;28;20207;-66
2021/12/07 03:59:04;;;;;;;53.05;11.32;;;;;;;;;;5094218;28;20210;-66
2021/12/07 04:01:32;;;;;;;42.88;12.23;;;;;;;;;;5093992;28;20219;-67
2021/12/07 04:04:03;;;;;;;49.92;13.15;;;;;;;;;;5093850;28;20211;-68
2021/12/07 04:06:30;;;;;;;38.90;12.00;;;;;;;;;;5094563;28;20207;-67
2021/12/07 04:08:58;;;;;;;37.00;11.38;;;;;;;;;;5094158;28;20298;-68
2021/12/07 04:11:25;;;;;;;36.25;10.75;;;;;;;;;;5093182;28;20715;-67
2021/12/07 04:13:53;;;;;;;44.63;12.02;;;;;;;;;;5094013;28;20730;-66
2021/12/07 04:16:20;;;;;;;35.88;10.85;;;;;;;;;;5093614;28;20321;-67
2021/12/07 04:18:48;;;;;;;35.15;11.63;;;;;;;;;;5094450;28;20299;-67
2021/12/07 04:21:17;;;;;;;34.10;9.55;;;;;;;;;;5092909;28;20717;-67
2021/12/07 04:23:45;;;;;;;39.28;11.00;;;;;;;;;;5092205;28;20846;-66
2021/12/07 04:26:13;;;;;;;31.95;8.75;;;;;;;;;;5092352;28;20211;-66
2021/12/07 04:28:41;;;;;;;39.05;11.95;;;;;;;;;;5092168;28;20227;-67
2021/12/07 04:31:09;;;;;;;43.67;10.98;;;;;;;;;;5091847;28;20734;-66
2021/12/07 04:33:37;;;;;;;27.45;8.90;;;;;;;;;;5091712;28;20204;-67
2021/12/07 04:36:05;;;;;;;36.75;10.63;;;;;;;;;;5085059;28;20232;-67
2021/12/07 04:38:34;;;;;;;45.45;10.90;;;;;;;;;;5092008;28;20204;-66
2021/12/07 04:41:02;;;;;;;38.40;10.15;;;;;;;;;;5091850;28;20207;-67
2021/12/07 04:43:30;;;;;;;40.75;9.95;;;;;;;;;;5091508;28;20950;-67
2021/12/07 04:46:06;;;;;;;34.30;9.82;;;;;;;;;;5091719;28;20257;-67
2021/12/07 04:59:39;;;;;;;31.38;9.95;;;;;;;;;;5091447;28;20210;-66
2021/12/07 05:02:06;;;;;;;43.85;11.50;;;;;;;;;;5100333;28;20591;-67
2021/12/07 05:04:35;;;;;;;45.03;11.88;;;;;;;;;;5110793;28;20205;-66
2021/12/07 05:07:09;;;;;;;34.45;10.32;;;;;;;;;;5110603;28;20207;-66
2021/12/07 05:12:37;;;;;;;31.73;8.48;;;;;;;;;;5106840;28;20279;-67
2021/12/07 05:15:15;;;;;;;35.53;9.27;;;;;;;;;;5110600;28;20241;-68
2021/12/07 05:39:40;;;;;;;39.13;9.90;;;;;;;;;;5090824;28;20264;-67
2021/12/07 05:42:09;;;;;;;44.00;13.57;;;;;;;;;;5091229;28;20574;-67
2021/12/07 05:44:36;;;;;;;46.55;14.57;;;;;;;;;;5090978;28;20660;-67
2021/12/07 05:47:04;;;;;;;52.75;18.42;;;;;;;;;;5084400;28;20688;-67
2021/12/07 05:49:32;;;;;;;49.47;12.77;;;;;;;;;;5090784;28;20590;-66
2021/12/07 05:51:59;;;;;;;47.97;15.30;;;;;;;;;;5090786;28;20227;-66
2021/12/07 05:54:27;;;;;;;45.35;10.85;;;;;;;;;;5101301;28;20576;-66
2021/12/07 05:56:54;;;;;;;32.92;9.50;;;;;;;;;;5110406;28;20256;-67
2021/12/07 05:59:23;;;;;;;34.70;9.02;;;;;;;;;;5110128;28;20214;-67
2021/12/07 06:01:50;;;;;;;57.25;14.18;;;;;;;;;;5110326;28;20225;-67
2021/12/07 06:04:17;;;;;;;32.70;11.15;;;;;;;;;;5110366;28;20207;-67
2021/12/07 06:06:45;;;;;;;38.40;11.57;;;;;;;;;;5110304;28;20653;-68
2021/12/07 06:09:12;;;;;;;32.65;9.50;;;;;;;;;;5110151;28;20207;-67
2021/12/07 06:11:41;;;;;;;38.33;10.30;;;;;;;;;;5109952;28;20231;-67
2021/12/07 06:14:09;;;;;;;34.53;9.50;;;;;;;;;;5109960;28;20609;-67
2021/12/07 06:16:38;;;;;;;37.97;11.55;;;;;;;;;;5110193;28;20680;-67
2021/12/07 06:19:06;;;;;;;36.47;10.57;;;;;;;;;;5111175;28;20203;-67
2021/12/07 06:21:33;;;;;;;51.13;14.15;;;;;;;;;;5098513;28;20204;-66
2021/12/07 06:24:01;;;;;;;53.88;16.88;;;;;;;;;;5094535;28;20660;-67
2021/12/07 06:26:28;;;;;;;114.07;36.85;;;;;;;;;;5094531;28;20203;-67
2021/12/07 06:28:55;;;;;;;42.90;12.95;;;;;;;;;;5113823;28;20211;-67
2021/12/07 06:31:23;;;;;;;37.97;11.13;;;;;;;;;;5113813;28;20238;-67
2021/12/07 06:33:52;;;;;;;40.55;10.77;;;;;;;;;;5113625;28;20763;-67
2021/12/07 06:36:19;;;;;;;38.40;11.35;;;;;;;;;;5113492;28;20238;-67
2021/12/07 06:38:47;;;;;;;25.25;7.90;;;;;;;;;;5113819;28;20203;-67
2021/12/07 06:41:15;;;;;;;41.22;12.00;;;;;;;;;;5113711;28;20322;-66
2021/12/07 06:43:43;;;;;;;33.03;10.65;;;;;;;;;;5113628;28;20210;-67
2021/12/07 06:46:11;;;;;;;34.28;8.02;;;;;;;;;;5113684;28;20616;-67
2021/12/07 06:48:38;;;;;;;37.83;9.90;;;;;;;;;;5087127;28;20784;-66
2021/12/07 06:51:07;;;;;;;38.30;9.88;;;;;;;;;;5094125;28;20238;-67
2021/12/07 06:53:36;;;;;;;37.83;11.05;;;;;;;;;;5093949;28;20209;-66
2021/12/07 06:56:05;;;;;;;32.67;8.95;;;;;;;;;;5094095;28;20748;-66
2021/12/07 06:58:32;;;;;;;33.05;8.48;;;;;;;;;;5093902;28;20220;-66
2021/12/07 07:01:00;;;;;;;31.35;10.05;;;;;;;;;;5093655;28;20208;-67
2021/12/07 07:03:27;;;;;;;38.67;11.30;;;;;;;;;;5093798;28;20704;-67
2021/12/07 07:05:54;;;;;;;39.45;10.38;;;;;;;;;;5093646;28;20218;-67
2021/12/07 07:08:23;;;;;;;31.27;9.75;;;;;;;;;;5093555;28;20199;-66
2021/12/07 07:10:51;;;;;;;28.52;9.02;;;;;;;;;;5113193;28;20214;-66
2021/12/07 07:13:18;;;;;;;33.85;9.65;;;;;;;;;;5112805;28;20231;-67
2021/12/07 07:15:46;;;;;;;25.63;8.50;;;;;;;;;;5112861;28;20218;-67
2021/12/07 07:18:13;;;;;;;28.98;8.00;;;;;;;;;;5113156;28;20294;-66
2021/12/07 07:20:40;;;;;;;23.52;7.00;;;;;;;;;;5112991;28;20581;-67
2021/12/07 07:23:08;;;;;;;36.28;11.38;;;;;;;;;;5113155;28;20238;-66
2021/12/07 07:25:37;;;;;;;35.70;9.40;;;;;;;;;;5112611;28;20711;-67
2021/12/07 07:28:04;;;;;;;34.20;9.38;;;;;;;;;;5112761;28;20683;-67
2021/12/07 07:30:32;;;;;;;23.35;8.02;;;;;;;;;;5112589;28;20676;-67
2021/12/07 07:32:59;;;;;;;45.00;11.05;;;;;;;;;;5112598;28;20237;-66
2021/12/07 07:35:27;;;;;;;38.15;10.60;;;;;;;;;;5112342;28;20209;-67
2021/12/07 07:37:54;;;;;;;29.95;8.25;;;;;;;;;;5112412;28;20227;-66
2021/12/07 07:40:23;;;;;;;37.08;10.60;;;;;;;;;;5112452;28;20668;-67
2021/12/07 07:42:52;;;;;;;25.40;6.70;;;;;;;;;;5112442;28;20286;-68
2021/12/07 07:45:19;;;;;;;37.55;8.75;;;;;;;;;;5112335;28;20200;-66
2021/12/07 07:47:47;;;;;;;27.98;8.05;;;;;;;;;;5112424;28;20596;-67
2021/12/07 07:50:15;;;;;;;29.25;8.05;;;;;;;;;;5085960;28;20204;-66
2021/12/07 07:52:43;;;;;;;30.67;8.23;;;;;;;;;;5092886;28;20647;-67
2021/12/07 07:55:11;;;;;;;36.15;10.93;;;;;;;;;;5092675;28;20211;-67
2021/12/07 07:57:39;;;;;;;35.58;9.88;;;;;;;;;;5092734;28;20196;-66
2021/12/07 08:00:09;;;;;;;31.90;11.10;;;;;;;;;;5092813;28;20208;-67
2021/12/07 08:02:36;;;;;;;41.20;11.05;;;;;;;;;;5092810;28;20642;-67
2021/12/07 08:05:04;;;;;;;35.00;10.95;;;;;;;;;;5092802;28;20331;-66
2021/12/07 08:07:32;;;;;;;46.30;14.18;;;;;;;;;;5092280;28;20199;-66
2021/12/07 08:09:59;;;;;;;39.60;11.15;;;;;;;;;;5092383;28;20204;-67
2021/12/07 08:12:26;;;;;;;39.80;10.50;;;;;;;;;;5085636;28;20228;-66
2021/12/07 08:14:54;;;;;;;33.55;9.10;;;;;;;;;;5092164;28;20220;-68
2021/12/07 08:17:23;;;;;;;39.03;12.20;;;;;;;;;;5092148;28;20203;-67
2021/12/07 08:19:50;;;;;;;34.35;10.68;;;;;;;;;;5092392;28;20312;-68
2021/12/07 08:22:18;;;;;;;37.95;10.75;;;;;;;;;;5092202;28;20247;-66
2021/12/07 08:24:45;;;;;;;36.95;12.00;;;;;;;;;;5092478;28;20295;-68
2021/12/07 08:27:13;;;;;;;32.78;8.60;;;;;;;;;;5092317;28;20204;-66
2021/12/07 08:29:40;;;;;;;35.55;9.70;;;;;;;;;;5091935;28;20215;-69
2021/12/07 08:32:08;;;;;;;31.05;8.80;;;;;;;;;;5085230;28;20319;-66
2021/12/07 08:34:37;;;;;;;35.03;11.20;;;;;;;;;;5091848;28;20647;-67
2021/12/07 08:37:04;;;;;;;36.75;10.38;;;;;;;;;;5091869;28;20231;-67
2021/12/07 08:39:34;;;;;;;42.55;12.18;;;;;;;;;;5091803;28;20210;-67
2021/12/07 08:42:02;;;;;;;44.05;12.60;;;;;;;;;;5091440;28;20294;-66
2021/12/07 08:44:29;;;;;;;37.10;10.93;;;;;;;;;;5091760;28;20725;-66
2021/12/07 08:46:57;;;;;;;47.00;12.48;;;;;;;;;;5091707;28;20208;-67
2021/12/07 08:49:24;;;;;;;37.03;11.50;;;;;;;;;;5091455;28;20215;-67
2021/12/07 08:51:53;;;;;;;32.17;9.65;;;;;;;;;;5091696;28;20234;-66
2021/12/07 08:54:34;;;;;;;40.05;10.82;;;;;;;;;;5111359;28;20210;-67
2021/12/07 08:59:46;;;;;;;64.63;22.25;;;;;;;;;;5091536;28;20691;-67
2021/12/07 09:02:16;;;;;;;38.45;11.93;;;;;;;;;;5091476;28;20261;-67
2021/12/07 09:04:43;;;;;;;28.90;9.80;;;;;;;;;;5091513;28;20204;-67
2021/12/07 09:07:12;;;;;;;33.67;9.48;;;;;;;;;;5091465;28;20212;-66
2021/12/07 09:09:42;;;;;;;49.95;11.57;;;;;;;;;;5091288;28;20206;-67
2021/12/07 09:12:10;;;;;;;28.98;8.95;;;;;;;;;;5091196;28;20228;-66
2021/12/07 09:14:38;;;;;;;41.22;9.48;;;;;;;;;;5091443;28;20303;-66
2021/12/07 09:17:07;;;;;;;34.25;10.45;;;;;;;;;;5091588;28;20303;-68
2021/12/07 09:19:35;;;;;;;43.42;12.40;;;;;;;;;;5091147;28;20208;-66
2021/12/07 09:22:02;;;;;;;33.63;9.30;;;;;;;;;;5091235;28;20273;-67
2021/12/07 09:24:32;;;;;;;31.83;9.40;;;;;;;;;;5091132;28;20200;-67
2021/12/07 09:27:00;;;;;;;35.67;9.10;;;;;;;;;;5090993;28;20209;-68
2021/12/07 09:29:27;;;;;;;34.58;10.77;;;;;;;;;;5084444;28;20240;-67
2021/12/07 09:31:55;;;;;;;25.98;7.95;;;;;;;;;;5090959;28;20710;-67
2021/12/07 09:34:22;;;;;;;30.67;9.98;;;;;;;;;;5091088;28;20214;-67
2021/12/07 09:36:50;;;;;;;31.15;8.13;;;;;;;;;;5090868;28;20349;-67
2021/12/07 09:39:18;;;;;;;23.08;6.07;;;;;;;;;;5090611;28;20218;-67
2021/12/07 09:41:48;;;;;;;28.30;7.95;;;;;;;;;;5090941;28;20212;-68
2021/12/07 09:44:15;;;;;;;25.23;8.60;;;;;;;;;;5090905;28;20200;-67
2021/12/07 09:46:43;;;;;;;24.70;6.95;;;;;;;;;;5090936;28;20211;-67
2021/12/07 09:49:11;;;;;;;23.88;5.70;;;;;;;;;;5090917;28;20315;-67
2021/12/07 09:51:39;;;;;;;30.80;6.63;;;;;;;;;;5109928;28;20204;-68
2021/12/07 09:54:08;;;;;;;21.52;6.38;;;;;;;;;;5113650;28;20207;-67
2021/12/07 09:56:35;;;;;;;19.92;5.15;;;;;;;;;;5114554;28;20211;-67
2021/12/07 09:59:06;;;;;;;26.92;7.03;;;;;;;;;;5114401;28;20210;-67
2021/12/07 10:01:33;;;;;;;28.90;8.50;;;;;;;;;;5114484;28;20229;-67
2021/12/07 10:04:01;;;;;;;25.75;7.07;;;;;;;;;;5114442;28;20207;-67
2021/12/07 10:06:29;;;;;;;29.58;8.93;;;;;;;;;;5114274;28;20578;-69
2021/12/07 10:08:56;;;;;;;23.00;7.32;;;;;;;;;;5114510;28;20215;-67
2021/12/07 10:11:25;;;;;;;36.97;9.35;;;;;;;;;;5114520;28;20199;-67
2021/12/07 10:13:52;;;;;;;23.98;7.38;;;;;;;;;;5114066;28;20239;-67
2021/12/07 10:16:22;;;;;;;33.90;9.05;;;;;;;;;;5114155;28;20634;-67
2021/12/07 10:18:49;;;;;;;21.60;7.07;;;;;;;;;;5114051;28;20608;-66
2021/12/07 10:21:18;;;;;;;27.08;7.57;;;;;;;;;;5114441;28;20300;-71
2021/12/07 10:23:48;;;;;;;26.25;7.55;;;;;;;;;;5113924;28;20262;-69
2021/12/07 10:26:17;;;;;;;24.45;6.10;;;;;;;;;;5113972;28;20207;-67
2021/12/07 10:28:46;;;;;;;27.95;7.30;;;;;;;;;;5113999;28;20203;-66
2021/12/07 10:31:27;;;;;;;35.78;7.35;;;;;;;;;;5113873;28;20232;-66
2021/12/07 10:33:57;;;;;;;20.25;6.80;;;;;;;;;;5114000;28;20249;-66
2021/12/07 10:36:26;;;;;;;26.13;8.18;;;;;;;;;;5113748;28;20631;-66
2021/12/07 10:38:56;;;;;;;29.25;8.27;;;;;;;;;;5113891;28;20592;-67
2021/12/07 10:41:25;;;;;;;34.47;9.80;;;;;;;;;;5113743;28;20208;-68
2021/12/07 10:43:54;;;;;;;25.73;8.15;;;;;;;;;;5087284;28;20673;-67
2021/12/07 10:46:35;;;;;;;27.55;7.72;;;;;;;;;;5094238;28;20205;-67
2021/12/07 10:49:09;;;;;;;23.67;7.28;;;;;;;;;;5093983;28;20205;-67
2021/12/07 10:51:37;;;;;;;26.08;7.10;;;;;;;;;;5093674;28;20218;-67
2021/12/07 10:54:04;;;;;;;28.95;7.55;;;;;;;;;;5113498;28;20227;-66
2021/12/07 10:56:32;;;;;;;18.38;4.15;;;;;;;;;;5113347;28;20618;-66
2021/12/07 10:59:01;;;;;;;28.65;8.38;;;;;;;;;;5113415;28;20290;-66
2021/12/07 11:01:33;;;;;;;32.85;8.13;;;;;;;;;;5113182;28;20200;-67
2021/12/07 11:04:16;;;;;;;22.15;5.75;;;;;;;;;;5109934;28;20649;-67
2021/12/07 11:06:58;;;;;;;29.02;7.78;;;;;;;;;;5093698;28;20233;-67
2021/12/07 11:09:25;;;;;;;25.90;6.78;;;;;;;;;;5093437;28;20237;-67
2021/12/07 11:12:06;;;;;;;21.70;6.65;;;;;;;;;;5093565;28;20214;-67
2021/12/07 11:14:40;;;;;;;20.67;5.90;;;;;;;;;;5093633;28;20227;-66
2021/12/07 11:17:11;;;;;;;24.88;6.22;;;;;;;;;;5093548;28;20587;-67
2021/12/07 11:19:39;;;;;;;22.70;6.47;;;;;;;;;;5093267;28;20212;-66
2021/12/07 11:22:06;;;;;;;20.67;5.65;;;;;;;;;;5093509;28;20219;-67
2021/12/07 11:24:40;;;;;;;39.78;11.50;;;;;;;;;;5093389;28;20209;-67
2021/12/07 11:29:58;;;;;;;24.17;6.35;;;;;;;;;;5093397;28;20234;-66
2021/12/07 11:32:27;;;;;;;21.63;6.05;;;;;;;;;;5093427;28;20239;-67
2021/12/07 11:34:55;;;;;;;20.52;6.32;;;;;;;;;;5093141;28;20201;-66
2021/12/07 11:37:23;;;;;;;22.83;6.13;;;;;;;;;;5092773;28;20243;-67
2021/12/07 11:39:55;;;;;;;19.48;5.60;;;;;;;;;;5093061;28;20262;-66
2021/12/07 11:42:24;;;;;;;25.27;6.70;;;;;;;;;;5093406;28;20254;-66
2021/12/07 11:44:53;;;;;;;21.35;6.70;;;;;;;;;;5092913;28;20205;-69
2021/12/07 11:47:25;;;;;;;30.67;9.70;;;;;;;;;;5092625;28;20210;-66
2021/12/07 11:49:54;;;;;;;23.58;7.18;;;;;;;;;;5093182;28;20208;-66
2021/12/07 11:52:22;;;;;;;28.73;8.18;;;;;;;;;;5092603;28;20208;-67
2021/12/07 11:54:49;;;;;;;23.38;6.68;;;;;;;;;;5092747;28;20201;-66
2021/12/07 11:57:18;;;;;;;31.67;9.10;;;;;;;;;;5093000;28;20243;-67
2021/12/07 11:59:47;;;;;;;24.02;7.53;;;;;;;;;;5092659;28;20209;-69
2021/12/07 12:02:15;;;;;;;22.20;7.82;;;;;;;;;;5092860;28;20202;-67
2021/12/07 12:04:42;;;;;;;26.98;8.77;;;;;;;;;;5092570;28;20209;-67
2021/12/07 12:07:11;;;;;;;29.10;7.53;;;;;;;;;;5092504;28;20209;-66
2021/12/07 12:09:45;;;;;;;22.95;8.27;;;;;;;;;;5092253;28;20219;-67
2021/12/07 12:12:17;;;;;;;23.77;7.10;;;;;;;;;;5092681;28;20296;-67
2021/12/07 12:14:54;;;;;;;23.33;7.47;;;;;;;;;;5107014;28;20237;-66
2021/12/07 12:17:31;;;;;;;24.73;7.20;;;;;;;;;;5110612;28;20213;-68
2021/12/07 12:20:05;;;;;;;20.95;6.07;;;;;;;;;;5112062;28;20557;-66
2021/12/07 12:22:37;;;;;;;20.90;5.70;;;;;;;;;;5111731;28;20611;-67
2021/12/07 12:25:07;;;;;;;27.10;7.30;;;;;;;;;;5111862;28;20205;-67
2021/12/07 12:27:35;;;;;;;27.60;8.38;;;;;;;;;;5111536;28;20288;-66
2021/12/07 12:30:07;;;;;;;21.42;6.30;;;;;;;;;;5111522;28;20594;-66
2021/12/07 12:32:36;;;;;;;34.58;6.60;;;;;;;;;;5111912;28;20293;-66
2021/12/07 12:35:05;;;;;;;23.50;6.57;;;;;;;;;;5085398;28;20623;-67
2021/12/07 12:37:34;;;;;;;28.42;6.35;;;;;;;;;;5091430;28;20731;-66
2021/12/07 12:40:02;;;;;;;24.98;9.40;;;;;;;;;;5091874;28;20669;-67
2021/12/07 12:42:31;;;;;;;27.55;10.68;;;;;;;;;;5091761;28;20208;-67
2021/12/07 12:45:07;;;;;;;23.08;7.50;;;;;;;;;;5092099;28;20207;-66
2021/12/07 12:47:35;;;;;;;28.02;7.68;;;;;;;;;;5091556;28;20208;-66
2021/12/07 12:50:16;;;;;;;24.63;6.95;;;;;;;;;;5091889;28;20217;-67
2021/12/07 12:52:47;;;;;;;24.75;7.28;;;;;;;;;;5091564;28;20210;-67
2021/12/07 12:55:32;;;;;;;30.95;6.25;;;;;;;;;;5091979;28;20204;-66
2021/12/07 12:58:00;;;;;;;32.40;8.57;;;;;;;;;;5091712;28;20210;-66
2021/12/07 13:00:48;;;;;;;26.25;7.00;;;;;;;;;;5091860;28;20584;-69
2021/12/07 13:03:15;;;;;;;23.30;6.93;;;;;;;;;;5084550;28;20581;-67
2021/12/07 13:05:45;;;;;;;24.92;7.30;;;;;;;;;;5091353;28;20300;-67
2021/12/07 13:08:14;;;;;;;24.52;7.15;;;;;;;;;;5091651;28;20230;-66
2021/12/07 13:11:03;;;;;;;27.63;8.02;;;;;;;;;;5091506;28;20273;-67
2021/12/07 13:25:38;;;;;;;27.45;8.10;;;;;;;;;;5072022;28;20708;-66
2021/12/07 13:28:13;;;;;;;28.35;9.07;;;;;;;;;;5067830;28;20748;-66
2021/12/07 13:31:05;;;;;;;19.92;5.90;;;;;;;;;;5067965;28;20275;-69
2021/12/07 13:33:37;;;;;;;22.00;7.30;;;;;;;;;;5057533;28;20673;-66
2021/12/07 13:36:30;;;;;;;29.27;6.93;;;;;;;;;;5067578;28;20295;-66
2021/12/07 13:39:00;;;;;;;22.73;5.82;;;;;;;;;;5061849;28;20210;-68
2021/12/07 13:41:29;;;;;;;25.27;7.25;;;;;;;;;;5061236;28;20682;-66
2021/12/07 13:43:56;;;;;;;18.55;6.57;;;;;;;;;;5067315;28;20767;-71
2021/12/07 13:46:25;;;;;;;23.73;6.00;;;;;;;;;;5067704;28;20221;-67
2021/12/07 13:48:54;;;;;;;21.23;6.88;;;;;;;;;;5067612;28;20209;-66
2021/12/07 13:51:22;;;;;;;24.50;7.82;;;;;;;;;;5067658;28;20259;-66
2021/12/07 13:53:51;;;;;;;21.67;6.93;;;;;;;;;;5067312;28;20271;-66
2021/12/07 13:56:18;;;;;;;24.20;6.57;;;;;;;;;;5067378;28;20219;-66
2021/12/07 13:58:55;;;;;;;25.45;8.57;;;;;;;;;;5067048;28;20804;-66
2021/12/07 14:01:23;;;;;;;26.45;8.25;;;;;;;;;;5066529;28;20209;-67
2021/12/07 14:03:50;;;;;;;26.67;9.25;;;;;;;;;;5066324;28;20228;-66
2021/12/07 14:06:17;;;;;;;28.10;8.18;;;;;;;;;;5065934;28;20209;-68
2021/12/07 14:08:45;;;;;;;25.20;7.63;;;;;;;;;;5066271;28;20217;-67
2021/12/07 14:11:13;;;;;;;25.23;7.50;;;;;;;;;;5066415;28;20208;-67
2021/12/07 14:13:41;;;;;;;22.40;6.82;;;;;;;;;;5066089;28;20717;-67
2021/12/07 14:16:11;;;;;;;28.05;9.07;;;;;;;;;;5065848;28;20209;-67
2021/12/07 14:18:38;;;;;;;26.17;8.43;;;;;;;;;;5065936;28;20216;-67
2021/12/07 14:21:07;;;;;;;24.40;7.18;;;;;;;;;;5066356;28;20244;-69
2021/12/07 14:23:35;;;;;;;21.17;7.63;;;;;;;;;;5066064;28;20286;-66
2021/12/07 14:26:04;;;;;;;26.85;8.98;;;;;;;;;;5055256;28;20214;-67
2021/12/07 14:28:34;;;;;;;22.00;7.18;;;;;;;;;;5052646;28;20215;-68
2021/12/07 14:31:03;;;;;;;22.73;7.93;;;;;;;;;;5052561;28;20217;-69
2021/12/07 14:33:32;;;;;;;26.55;7.65;;;;;;;;;;5046095;28;20205;-67
2021/12/07 14:35:59;;;;;;;26.95;8.93;;;;;;;;;;5052433;28;20215;-67
2021/12/07 14:38:31;;;;;;;40.95;20.33;;;;;;;;;;5052637;28;20368;-67
2021/12/07 14:41:01;;;;;;;26.80;8.00;;;;;;;;;;5052558;28;20215;-67
2021/12/07 14:43:29;;;;;;;21.48;5.88;;;;;;;;;;5052397;28;20256;-67
2021/12/07 14:45:59;;;;;;;25.77;7.28;;;;;;;;;;5051985;28;20221;-68
2021/12/07 14:48:26;;;;;;;25.58;8.23;;;;;;;;;;5052270;28;20220;-67
2021/12/07 14:50:55;;;;;;;24.02;8.00;;;;;;;;;;5052299;28;20212;-66
2021/12/07 14:53:32;;;;;;;27.92;7.97;;;;;;;;;;5052277;28;20205;-67
2021/12/07 14:56:00;;;;;;;33.17;7.85;;;;;;;;;;5052238;28;20259;-67
2021/12/07 14:58:31;;;;;;;27.08;7.57;;;;;;;;;;5052152;28;20262;-67
2021/12/07 15:00:59;;;;;;;23.60;8.05;;;;;;;;;;5052191;28;20212;-66
2021/12/07 15:03:34;;;;;;;21.15;7.32;;;;;;;;;;5052163;28;20209;-69
2021/12/07 15:06:04;;;;;;;32.92;10.18;;;;;;;;;;5046223;28;20319;-68
2021/12/07 15:08:31;;;;;;;22.38;8.60;;;;;;;;;;5051972;28;20205;-68
2021/12/07 15:10:59;;;;;;;31.13;9.02;;;;;;;;;;5051766;28;20585;-66
2021/12/07 15:13:27;;;;;;;24.48;7.60;;;;;;;;;;5051986;28;20625;-67
2021/12/07 15:15:55;;;;;;;24.90;7.35;;;;;;;;;;5052016;28;20721;-66
2021/12/07 15:18:27;;;;;;;24.23;8.25;;;;;;;;;;5051745;28;20677;-67
2021/12/07 15:20:54;;;;;;;27.58;9.20;;;;;;;;;;5051717;28;20209;-66
2021/12/07 15:23:24;;;;;;;31.92;8.80;;;;;;;;;;5051306;28;20592;-68
2021/12/07 15:25:51;;;;;;;22.73;7.00;;;;;;;;;;5051886;28;20315;-66
2021/12/07 15:28:19;;;;;;;19.10;6.32;;;;;;;;;;5051519;28;20562;-67
2021/12/07 15:30:47;;;;;;;21.30;6.30;;;;;;;;;;5051976;28;20216;-69
2021/12/07 15:33:14;;;;;;;22.38;6.43;;;;;;;;;;5045080;28;20205;-67
2021/12/07 15:35:44;;;;;;;21.92;8.48;;;;;;;;;;5051351;28;20213;-67
2021/12/07 15:38:13;;;;;;;28.95;10.10;;;;;;;;;;5050609;28;20298;-67
2021/12/07 15:40:44;;;;;;;19.67;6.80;;;;;;;;;;5051327;28;20209;-67
2021/12/07 15:43:12;;;;;;;18.80;6.15;;;;;;;;;;5051566;28;20213;-67
2021/12/07 15:45:39;;;;;;;23.27;7.38;;;;;;;;;;5051272;28;20613;-66
2021/12/07 15:48:07;;;;;;;30.05;9.32;;;;;;;;;;5050986;28;20205;-66
2021/12/07 15:50:37;;;;;;;21.00;6.63;;;;;;;;;;5051292;28;20737;-66
2021/12/07 15:53:06;;;;;;;26.35;7.55;;;;;;;;;;5051114;28;20205;-66
2021/12/07 15:55:35;;;;;;;19.42;7.05;;;;;;;;;;5051172;28;20210;-67
2021/12/07 15:58:06;;;;;;;27.63;9.77;;;;;;;;;;5050826;28;20205;-67
2021/12/07 16:00:34;;;;;;;22.75;6.95;;;;;;;;;;5051286;28;20294;-66
2021/12/07 16:03:03;;;;;;;19.75;7.10;;;;;;;;;;5050958;28;20666;-67
2021/12/07 16:05:35;;;;;;;24.27;7.57;;;;;;;;;;5050701;28;20320;-66
2021/12/07 16:08:09;;;;;;;28.50;9.60;;;;;;;;;;5050651;28;20213;-66
2021/12/07 16:10:37;;;;;;;21.00;6.22;;;;;;;;;;5050940;28;20632;-68
2021/12/07 16:13:07;;;;;;;22.08;7.15;;;;;;;;;;5050774;28;20583;-68
2021/12/07 16:15:35;;;;;;;20.88;6.75;;;;;;;;;;5050682;28;20209;-68